createdAt,value
2024-05-09T00:00:30.547Z,54.77
2024-05-09T00:01:23.915Z,54.57
2024-05-09T00:02:24.015Z,54.67
2024-05-09T00:03:23.921Z,55.00
2024-05-09T00:04:23.927Z,55.00
2024-05-09T00:05:24.015Z,54.69
2024-05-09T00:06:23.840Z,54.59
2024-05-09T00:07:23.845Z,54.79
2024-05-09T00:08:23.914Z,54.90
2024-05-09T00:09:23.888Z,54.79
2024-05-09T00:10:32.649Z,55.00
2024-05-09T00:11:23.916Z,55.10
2024-05-09T00:12:23.894Z,55.41
2024-05-09T00:13:23.862Z,55.30
2024-05-09T00:14:23.917Z,55.20
2024-05-09T00:15:23.753Z,55.71
2024-05-09T00:16:23.743Z,55.71
2024-05-09T00:18:23.903Z,55.71
2024-05-09T00:19:23.766Z,56.12
2024-05-09T00:20:28.616Z,56.12
2024-05-09T00:21:23.694Z,56.23
2024-05-09T00:22:23.689Z,56.23
2024-05-09T00:23:23.778Z,56.32
2024-05-09T00:24:23.710Z,56.32
2024-05-09T00:25:23.690Z,56.43
2024-05-09T00:26:23.715Z,56.12
2024-05-09T00:27:23.684Z,56.23
2024-05-09T00:28:23.728Z,56.12
2024-05-09T00:29:23.747Z,56.32
2024-05-09T00:30:31.665Z,56.63
2024-05-09T00:31:23.648Z,56.84
2024-05-09T00:32:23.784Z,57.04
2024-05-09T00:33:23.876Z,57.34
2024-05-09T00:34:23.690Z,57.24
2024-05-09T00:35:23.731Z,57.07
2024-05-09T00:36:23.564Z,57.57
2024-05-09T00:37:23.571Z,57.48
2024-05-09T00:38:23.661Z,57.57
2024-05-09T00:39:23.572Z,57.48
2024-05-09T00:40:34.694Z,57.88
2024-05-09T00:41:23.607Z,58.39
2024-05-09T00:42:23.586Z,58.50
2024-05-09T00:43:23.479Z,59.11
2024-05-09T00:44:23.620Z,59.00
2024-05-09T00:45:23.463Z,59.11
2024-05-09T00:46:23.512Z,58.91
2024-05-09T00:47:23.521Z,59.34
2024-05-09T00:48:23.627Z,59.85
2024-05-09T00:49:23.517Z,59.64
2024-05-09T00:50:29.944Z,60.26
2024-05-09T00:51:23.480Z,60.77
2024-05-09T00:52:23.407Z,60.67
2024-05-09T00:53:23.466Z,61.58
2024-05-09T00:54:23.376Z,61.49
2024-05-09T00:55:23.375Z,61.58
2024-05-09T00:56:23.415Z,61.41
2024-05-09T00:57:23.344Z,61.72
2024-05-09T00:58:23.395Z,61.61
2024-05-09T00:59:23.342Z,61.92
2024-05-09T01:00:31.457Z,62.23
2024-05-09T01:01:23.355Z,63.15
2024-05-09T01:02:23.408Z,64.07
2024-05-09T01:03:23.474Z,64.58
2024-05-09T01:04:23.338Z,63.66
2024-05-09T01:05:23.323Z,63.48
2024-05-09T01:06:23.258Z,63.39
2024-05-09T01:07:23.253Z,63.35
2024-05-09T01:08:23.307Z,62.95
2024-05-09T01:09:23.282Z,63.66
2024-05-09T01:10:28.210Z,64.17
2024-05-09T01:11:23.366Z,63.89
2024-05-09T01:12:23.324Z,64.20
2024-05-09T01:13:23.208Z,65.12
2024-05-09T01:14:23.345Z,65.02
2024-05-09T01:15:23.188Z,65.22
2024-05-09T01:16:23.190Z,65.15
2024-05-09T01:17:23.301Z,64.95
2024-05-09T01:18:23.304Z,65.77
2024-05-09T01:19:23.422Z,66.17
2024-05-09T01:20:32.007Z,65.56
2024-05-09T01:21:23.148Z,65.56
2024-05-09T01:22:23.114Z,65.97
2024-05-09T01:23:23.281Z,65.80
2024-05-09T01:24:23.134Z,66.20
2024-05-09T01:25:23.078Z,66.00
2024-05-09T01:26:23.136Z,66.51
2024-05-09T01:27:23.059Z,66.92
2024-05-09T01:28:23.081Z,66.82
2024-05-09T01:29:23.137Z,66.61
2024-05-09T01:30:31.269Z,66.72
2024-05-09T01:31:23.020Z,66.41
2024-05-09T01:32:23.236Z,66.00
2024-05-09T01:33:23.292Z,66.10
2024-05-09T01:34:23.026Z,65.90
2024-05-09T01:35:23.056Z,65.90
2024-05-09T01:36:22.984Z,66.00
2024-05-09T01:37:23.084Z,65.90
2024-05-09T01:38:23.180Z,65.90
2024-05-09T01:39:22.954Z,66.10
2024-05-09T01:40:32.708Z,66.24
2024-05-09T01:41:22.971Z,66.34
2024-05-09T01:42:23.019Z,66.34
2024-05-09T01:43:22.897Z,66.34
2024-05-09T01:44:23.079Z,66.95
2024-05-09T01:45:22.883Z,67.36
2024-05-09T01:46:23.084Z,67.70
2024-05-09T01:47:23.186Z,67.29
2024-05-09T01:48:23.038Z,67.40
2024-05-09T01:49:23.005Z,67.70
2024-05-09T01:50:34.157Z,67.49
2024-05-09T01:51:22.904Z,68.01
2024-05-09T01:52:23.073Z,67.80
2024-05-09T01:53:22.875Z,68.21
2024-05-09T01:54:22.805Z,68.01
2024-05-09T01:55:22.800Z,68.21
2024-05-09T01:56:22.956Z,68.41
2024-05-09T01:57:22.776Z,68.52
2024-05-09T01:58:22.824Z,68.32
2024-05-09T01:59:22.869Z,68.52
2024-05-09T02:00:33.229Z,69.13
2024-05-09T02:01:22.868Z,68.86
2024-05-09T02:02:22.830Z,68.96
2024-05-09T02:03:22.966Z,69.37
2024-05-09T02:04:22.813Z,69.68
2024-05-09T02:05:22.965Z,69.37
2024-05-09T02:06:22.718Z,69.17
2024-05-09T02:07:22.708Z,69.37
2024-05-09T02:08:22.770Z,69.37
2024-05-09T02:09:22.669Z,69.61
2024-05-09T02:10:26.622Z,69.71
2024-05-09T02:11:22.739Z,70.22
2024-05-09T02:12:22.767Z,69.57
2024-05-09T02:13:22.633Z,69.17
2024-05-09T02:14:22.694Z,68.68
2024-05-09T02:15:22.680Z,68.65
2024-05-09T02:16:22.594Z,68.96
2024-05-09T02:17:22.871Z,68.96
2024-05-09T02:18:22.747Z,68.65
2024-05-09T02:19:22.896Z,69.27
2024-05-09T02:20:30.704Z,69.27
2024-05-09T02:21:22.546Z,69.47
2024-05-09T02:22:22.550Z,69.37
2024-05-09T02:23:22.590Z,69.17
2024-05-09T02:24:22.570Z,69.57
2024-05-09T02:25:22.513Z,69.71
2024-05-09T02:26:22.567Z,69.61
2024-05-09T02:27:22.484Z,69.81
2024-05-09T02:28:22.550Z,69.81
2024-05-09T02:29:22.610Z,69.81
2024-05-09T02:30:30.127Z,69.81
2024-05-09T02:31:22.444Z,69.71
2024-05-09T02:32:22.531Z,69.92
2024-05-09T02:33:22.783Z,69.71
2024-05-09T02:34:22.814Z,69.81
2024-05-09T02:35:22.430Z,69.81
2024-05-09T02:36:22.408Z,70.12
2024-05-09T02:37:22.413Z,70.05
2024-05-09T02:38:22.434Z,69.81
2024-05-09T02:39:22.364Z,70.36
2024-05-09T02:40:29.213Z,70.36
2024-05-09T02:41:22.434Z,70.05
2024-05-09T02:42:22.449Z,70.46
2024-05-09T02:43:22.356Z,70.26
2024-05-09T02:44:22.473Z,70.15
2024-05-09T02:45:22.279Z,70.05
2024-05-09T02:46:22.254Z,70.56
2024-05-09T02:47:22.742Z,70.77
2024-05-09T02:48:22.408Z,70.77
2024-05-09T02:49:22.337Z,70.77
2024-05-09T02:50:29.935Z,70.87
2024-05-09T02:51:22.218Z,70.67
2024-05-09T02:52:22.228Z,70.46
2024-05-09T02:53:22.226Z,70.77
2024-05-09T02:54:22.186Z,70.97
2024-05-09T02:55:22.170Z,70.90
2024-05-09T02:56:22.285Z,70.80
2024-05-09T02:57:22.162Z,70.80
2024-05-09T02:58:22.153Z,70.90
2024-05-09T02:59:22.325Z,70.90
2024-05-09T03:00:29.447Z,70.70
2024-05-09T03:01:22.220Z,71.01
2024-05-09T03:02:22.312Z,70.80
2024-05-09T03:03:22.425Z,71.31
2024-05-09T03:04:22.149Z,71.31
2024-05-09T03:05:22.190Z,71.21
2024-05-09T03:06:22.190Z,71.62
2024-05-09T03:07:22.048Z,71.72
2024-05-09T03:08:22.182Z,71.52
2024-05-09T03:09:22.034Z,71.31
2024-05-09T03:10:25.712Z,71.45
2024-05-09T03:11:22.186Z,71.45
2024-05-09T03:12:22.057Z,71.35
2024-05-09T03:13:22.085Z,71.35
2024-05-09T03:14:22.107Z,71.35
2024-05-09T03:15:22.023Z,71.66
2024-05-09T03:16:21.965Z,71.55
2024-05-09T03:17:22.121Z,71.86
2024-05-09T03:18:22.094Z,71.86
2024-05-09T03:19:22.202Z,72.06
2024-05-09T03:20:27.581Z,71.66
2024-05-09T03:21:21.933Z,71.76
2024-05-09T03:22:21.965Z,71.55
2024-05-09T03:23:21.956Z,71.45
2024-05-09T03:24:21.951Z,71.55
2024-05-09T03:25:21.942Z,71.55
2024-05-09T03:26:21.966Z,71.76
2024-05-09T03:27:21.880Z,71.86
2024-05-09T03:28:21.873Z,72.27
2024-05-09T03:29:22.014Z,71.79
2024-05-09T03:30:30.181Z,71.89
2024-05-09T03:31:21.841Z,72.10
2024-05-09T03:32:21.947Z,72.51
2024-05-09T03:33:22.295Z,72.72
2024-05-09T03:34:21.901Z,72.41
2024-05-09T03:35:21.957Z,72.41
2024-05-09T03:36:21.806Z,72.41
2024-05-09T03:37:21.773Z,72.20
2024-05-09T03:38:21.930Z,72.41
2024-05-09T03:39:21.792Z,72.61
2024-05-09T03:40:26.511Z,72.41
2024-05-09T03:41:21.786Z,72.51
2024-05-09T03:42:21.721Z,72.72
2024-05-09T03:43:21.761Z,72.51
2024-05-09T03:44:21.795Z,72.31
2024-05-09T03:45:21.691Z,72.41
2024-05-09T03:46:21.800Z,72.10
2024-05-09T03:47:21.901Z,72.20
2024-05-09T03:48:21.958Z,72.20
2024-05-09T03:49:22.216Z,72.51
2024-05-09T03:50:29.892Z,72.61
2024-05-09T03:51:21.640Z,72.61
2024-05-09T03:52:21.663Z,72.51
2024-05-09T03:53:21.728Z,72.72
2024-05-09T03:54:21.614Z,72.51
2024-05-09T03:55:21.606Z,72.82
2024-05-09T03:56:21.639Z,72.92
2024-05-09T03:57:21.613Z,72.72
2024-05-09T03:58:21.621Z,72.61
2024-05-09T03:59:21.640Z,72.82
2024-05-09T04:00:30.741Z,72.72
2024-05-09T04:01:21.600Z,72.61
2024-05-09T04:02:21.675Z,72.82
2024-05-09T04:03:21.712Z,72.72
2024-05-09T04:04:21.556Z,72.92
2024-05-09T04:05:21.528Z,72.61
2024-05-09T04:06:21.589Z,72.61
2024-05-09T04:07:21.494Z,72.92
2024-05-09T04:08:21.616Z,73.02
2024-05-09T04:09:21.497Z,72.82
2024-05-09T04:10:27.955Z,73.02
2024-05-09T04:11:21.645Z,73.23
2024-05-09T04:12:21.517Z,73.02
2024-05-09T04:13:21.430Z,72.92
2024-05-09T04:14:22.457Z,73.13
2024-05-09T04:15:21.528Z,73.33
2024-05-09T04:16:21.430Z,73.23
2024-05-09T04:17:21.449Z,73.23
2024-05-09T04:18:21.519Z,73.44
2024-05-09T04:19:21.690Z,73.33
2024-05-09T04:20:32.528Z,73.33
2024-05-09T04:21:21.371Z,73.74
2024-05-09T04:22:21.375Z,73.44
2024-05-09T04:23:21.376Z,74.05
2024-05-09T04:24:21.352Z,73.95
2024-05-09T04:25:21.390Z,73.54
2024-05-09T04:26:21.426Z,73.95
2024-05-09T04:27:21.430Z,73.74
2024-05-09T04:28:21.443Z,73.95
2024-05-09T04:29:21.399Z,74.15
2024-05-09T04:30:30.260Z,73.95
2024-05-09T04:31:21.252Z,74.57
2024-05-09T04:32:21.582Z,74.57
2024-05-09T04:33:21.514Z,74.67
2024-05-09T04:34:21.450Z,74.98
2024-05-09T04:35:21.342Z,75.38
2024-05-09T04:36:21.236Z,75.29
2024-05-09T04:37:21.215Z,75.45
2024-05-09T04:38:21.305Z,75.56
2024-05-09T04:39:21.236Z,76.07
2024-05-09T04:40:28.335Z,76.17
2024-05-09T04:41:21.221Z,76.79
2024-05-09T04:42:21.220Z,76.89
2024-05-09T04:43:21.314Z,76.89
2024-05-09T04:44:21.256Z,77.20
2024-05-09T04:45:21.137Z,77.20
2024-05-09T04:46:21.111Z,76.79
2024-05-09T04:47:21.327Z,76.58
2024-05-09T04:48:21.326Z,76.55
2024-05-09T04:49:21.211Z,76.24
2024-05-09T04:50:29.943Z,76.34
2024-05-09T04:51:21.081Z,76.14
2024-05-09T04:52:21.087Z,75.93
2024-05-09T04:53:21.146Z,76.34
2024-05-09T04:54:30.111Z,75.93
2024-05-09T04:55:21.042Z,76.14
2024-05-09T04:56:21.074Z,75.93
2024-05-09T04:57:21.145Z,75.52
2024-05-09T04:58:21.108Z,75.32
2024-05-09T04:59:21.013Z,75.08
2024-05-09T05:00:28.632Z,75.08
2024-05-09T05:01:21.004Z,74.87
2024-05-09T05:02:21.115Z,74.66
2024-05-09T05:03:21.279Z,75.38
2024-05-09T05:04:21.007Z,75.18
2024-05-09T05:05:21.048Z,74.87
2024-05-09T05:06:20.922Z,74.66
2024-05-09T05:07:21.015Z,74.98
2024-05-09T05:08:20.953Z,74.66
2024-05-09T05:09:20.950Z,74.36
2024-05-09T05:10:25.538Z,74.26
2024-05-09T05:11:20.998Z,74.46
2024-05-09T05:12:21.141Z,74.46
2024-05-09T05:13:22.184Z,74.36
2024-05-09T05:14:20.887Z,74.15
2024-05-09T05:15:20.864Z,74.26
2024-05-09T05:16:20.893Z,74.22
2024-05-09T05:17:21.001Z,74.53
2024-05-09T05:18:20.900Z,74.12
2024-05-09T05:19:20.949Z,74.53
2024-05-09T05:20:27.549Z,74.84
2024-05-09T05:21:21.070Z,74.22
2024-05-09T05:22:20.779Z,74.02
2024-05-09T05:23:20.945Z,74.12
2024-05-09T05:24:20.753Z,74.84
2024-05-09T05:25:20.782Z,74.84
2024-05-09T05:26:20.831Z,75.35
2024-05-09T05:27:20.747Z,74.80
2024-05-09T05:28:20.727Z,74.49
2024-05-09T05:29:21.085Z,74.49
2024-05-09T05:30:25.290Z,74.29
2024-05-09T05:31:20.743Z,74.60
2024-05-09T05:32:20.813Z,75.73
2024-05-09T05:33:20.944Z,74.90
2024-05-09T05:34:20.667Z,75.11
2024-05-09T05:35:20.776Z,74.70
2024-05-09T05:36:20.736Z,74.90
2024-05-09T05:37:20.691Z,74.80
2024-05-09T05:38:23.887Z,74.77
2024-05-09T05:39:20.726Z,74.26
2024-05-09T05:40:28.220Z,73.64
2024-05-09T05:41:20.660Z,73.33
2024-05-09T05:42:20.594Z,73.64
2024-05-09T05:43:20.590Z,73.23
2024-05-09T05:44:20.717Z,72.99
2024-05-09T05:45:20.583Z,72.78
2024-05-09T05:46:20.546Z,72.99
2024-05-09T05:47:20.689Z,72.28
2024-05-09T05:48:20.736Z,72.14
2024-05-09T05:49:20.705Z,72.11
2024-05-09T05:50:27.538Z,70.27
2024-05-09T05:51:20.624Z,68.16
2024-05-09T05:52:20.490Z,67.29
2024-05-09T05:53:20.591Z,65.28
2024-05-09T05:54:20.517Z,64.03
2024-05-09T05:55:20.475Z,62.68
2024-05-09T05:56:20.559Z,62.35
2024-05-09T05:57:20.534Z,62.14
2024-05-09T05:58:20.468Z,62.11
2024-05-09T05:59:20.463Z,60.99
2024-05-09T06:00:29.283Z,61.71
2024-05-09T06:01:20.460Z,60.99
2024-05-09T06:02:20.605Z,60.56
2024-05-09T06:03:20.451Z,60.86
2024-05-09T06:04:20.383Z,59.64
2024-05-09T06:05:20.400Z,60.02
2024-05-09T06:06:20.373Z,59.48
2024-05-09T06:07:20.386Z,57.76
2024-05-09T06:08:20.640Z,57.84
2024-05-09T06:09:20.314Z,57.84
2024-05-09T06:10:25.489Z,56.90
2024-05-09T06:11:20.419Z,56.59
2024-05-09T06:12:20.421Z,56.36
2024-05-09T06:13:20.293Z,56.57
2024-05-09T06:14:20.302Z,55.96
2024-05-09T06:15:20.292Z,54.94
2024-05-09T06:16:20.277Z,56.36
2024-05-09T06:17:20.443Z,56.77
2024-05-09T06:18:20.490Z,56.97
2024-05-09T06:19:20.520Z,56.13
2024-05-09T06:20:27.126Z,56.44
2024-05-09T06:21:20.293Z,55.32
2024-05-09T06:22:20.235Z,55.43
2024-05-09T06:23:20.257Z,55.43
2024-05-09T06:24:20.192Z,54.49
2024-05-09T06:25:20.174Z,55.30
2024-05-09T06:26:20.232Z,56.31
2024-05-09T06:27:20.146Z,56.51
2024-05-09T06:28:20.139Z,54.89
2024-05-09T06:29:20.275Z,55.19
2024-05-09T06:30:26.338Z,53.75
2024-05-09T06:31:20.145Z,54.16
2024-05-09T06:32:20.265Z,54.44
2024-05-09T06:33:20.358Z,54.03
2024-05-09T06:34:20.350Z,53.09
2024-05-09T06:35:20.196Z,52.08
2024-05-09T06:36:20.236Z,52.48
2024-05-09T06:37:20.083Z,52.76
2024-05-09T06:38:20.375Z,52.56
2024-05-09T06:39:20.093Z,52.36
2024-05-09T06:40:25.705Z,52.76
2024-05-09T06:41:20.064Z,53.45
2024-05-09T06:42:20.039Z,52.54
2024-05-09T06:43:20.224Z,51.55
2024-05-09T06:44:20.161Z,52.76
2024-05-09T06:45:20.000Z,51.86
2024-05-09T06:46:19.975Z,52.97
2024-05-09T06:47:20.034Z,52.87
2024-05-09T06:48:20.638Z,53.78
2024-05-09T06:49:20.229Z,53.17
2024-05-09T06:50:24.148Z,54.18
2024-05-09T06:51:20.003Z,53.25
2024-05-09T06:52:19.989Z,52.74
2024-05-09T06:53:19.989Z,52.51
2024-05-09T06:54:19.974Z,51.98
2024-05-09T06:55:19.879Z,51.28
2024-05-09T06:56:20.067Z,50.75
2024-05-09T06:57:20.638Z,50.75
2024-05-09T06:58:19.848Z,51.64
2024-05-09T06:59:19.898Z,50.02
2024-05-09T07:00:27.473Z,48.69
2024-05-09T07:01:19.957Z,48.96
2024-05-09T07:02:19.909Z,50.45
2024-05-09T07:03:20.255Z,49.10
2024-05-09T07:04:20.151Z,48.44
2024-05-09T07:05:19.931Z,46.41
2024-05-09T07:06:19.839Z,44.96
2024-05-09T07:07:19.797Z,43.74
2024-05-09T07:08:19.897Z,42.19
2024-05-09T07:09:19.782Z,40.95
2024-05-09T07:10:28.406Z,39.01
2024-05-09T07:11:19.881Z,38.78
2024-05-09T07:12:19.846Z,37.44
2024-05-09T07:13:19.856Z,36.91
2024-05-09T07:14:19.749Z,35.97
2024-05-09T07:15:19.719Z,35.36
2024-05-09T07:16:19.788Z,34.33
2024-05-09T07:17:19.857Z,34.10
2024-05-09T07:18:20.561Z,33.09
2024-05-09T07:19:19.843Z,32.67
2024-05-09T07:20:27.505Z,33.95
2024-05-09T07:21:19.895Z,34.03
2024-05-09T07:22:19.660Z,32.12
2024-05-09T07:23:19.812Z,31.71
2024-05-09T07:24:19.669Z,31.49
2024-05-09T07:25:19.725Z,33.04
2024-05-09T07:26:19.732Z,31.94
2024-05-09T07:27:19.681Z,30.04
2024-05-09T07:28:19.884Z,29.05
2024-05-09T07:29:19.598Z,29.52
2024-05-09T07:30:26.990Z,28.92
2024-05-09T07:31:19.656Z,28.72
2024-05-09T07:32:19.721Z,30.19
2024-05-09T07:33:21.179Z,29.66
2024-05-09T07:34:19.785Z,29.24
2024-05-09T07:35:20.676Z,29.33
2024-05-09T07:36:19.562Z,28.13
2024-05-09T07:37:19.534Z,27.23
2024-05-09T07:38:19.679Z,26.62
2024-05-09T07:39:19.529Z,25.33
2024-05-09T07:40:28.581Z,26.11
2024-05-09T07:41:19.588Z,26.50
2024-05-09T07:42:19.484Z,25.60
2024-05-09T07:43:19.491Z,25.78
2024-05-09T07:44:20.203Z,25.28
2024-05-09T07:45:39.692Z,24.77
2024-05-09T07:47:14.540Z,25.94
2024-05-09T07:50:34.271Z,25.05
2024-05-09T07:53:32.474Z,23.08
2024-05-09T07:53:49.493Z,22.46
2024-05-09T07:54:00.527Z,23.03
2024-05-09T07:54:56.476Z,22.06
2024-05-09T07:55:56.882Z,22.35
2024-05-09T07:56:56.469Z,22.55
2024-05-09T07:57:56.114Z,21.75
2024-05-09T07:58:56.444Z,22.74
2024-05-09T07:59:56.099Z,22.45
2024-05-09T08:00:56.232Z,21.28
2024-05-09T08:01:56.229Z,22.05
2024-05-09T08:02:56.187Z,21.28
2024-05-09T08:03:56.359Z,21.77
2024-05-09T08:04:56.214Z,20.78
2024-05-09T08:05:56.108Z,22.73
2024-05-09T08:06:56.070Z,21.64
2024-05-09T08:07:56.016Z,21.25
2024-05-09T08:08:56.867Z,22.22
2024-05-09T08:09:56.226Z,22.21
2024-05-09T08:10:56.056Z,21.42
2024-05-09T08:11:56.025Z,20.74
2024-05-09T08:12:56.056Z,20.53
2024-05-09T08:13:56.015Z,19.56
2024-05-09T08:14:56.096Z,20.45
2024-05-09T08:15:56.024Z,19.85
2024-05-09T08:16:55.981Z,21.02
2024-05-09T08:17:56.370Z,21.22
2024-05-09T08:18:56.193Z,18.68
2024-05-09T08:19:55.929Z,18.77
2024-05-09T08:20:55.911Z,19.45
2024-05-09T08:21:55.982Z,18.38
2024-05-09T08:22:55.956Z,17.41
2024-05-09T08:23:55.920Z,18.96
2024-05-09T08:24:55.977Z,19.06
2024-05-09T08:25:55.870Z,18.58
2024-05-09T08:26:55.918Z,17.01
2024-05-09T08:27:55.954Z,18.87
2024-05-09T08:28:55.865Z,18.19
2024-05-09T08:29:55.878Z,19.35
2024-05-09T08:30:55.983Z,18.86
2024-05-09T08:31:56.001Z,18.18
2024-05-09T08:32:55.910Z,17.50
2024-05-09T08:33:55.949Z,18.48
2024-05-09T08:34:55.950Z,17.80
2024-05-09T08:35:55.815Z,18.87
2024-05-09T08:36:57.574Z,19.45
2024-05-09T08:37:55.973Z,19.73
2024-05-09T08:38:55.787Z,20.32
2024-05-09T08:39:55.863Z,19.73
2024-05-09T08:40:55.886Z,18.95
2024-05-09T08:41:55.779Z,19.04
2024-05-09T08:42:55.860Z,18.56
2024-05-09T08:43:55.723Z,18.56
2024-05-09T08:44:55.762Z,18.56
2024-05-09T08:45:55.769Z,16.61
2024-05-09T08:46:56.490Z,17.30
2024-05-09T08:47:55.834Z,16.91
2024-05-09T08:48:55.884Z,17.30
2024-05-09T08:49:55.707Z,18.17
2024-05-09T08:50:55.753Z,19.04
2024-05-09T08:51:55.748Z,18.85
2024-05-09T08:52:55.681Z,16.52
2024-05-09T08:53:55.685Z,17.50
2024-05-09T08:54:55.949Z,17.01
2024-05-09T08:55:55.691Z,17.12
2024-05-09T08:56:55.650Z,18.38
2024-05-09T08:57:55.651Z,18.19
2024-05-09T08:58:55.638Z,18.49
2024-05-09T08:59:55.706Z,19.65
2024-05-09T09:00:55.719Z,19.17
2024-05-09T09:01:55.770Z,18.19
2024-05-09T09:02:55.670Z,18.49
2024-05-09T09:03:55.744Z,18.10
2024-05-09T09:04:55.691Z,19.56
2024-05-09T09:05:55.579Z,17.42
2024-05-09T09:06:58.215Z,18.98
2024-05-09T09:07:55.608Z,16.94
2024-05-09T09:08:55.592Z,18.13
2024-05-09T09:09:55.668Z,18.82
2024-05-09T09:10:55.573Z,19.12
2024-05-09T09:11:55.548Z,19.21
2024-05-09T09:12:55.661Z,17.56
2024-05-09T09:13:55.557Z,18.92
2024-05-09T09:14:55.517Z,17.57
2024-05-09T09:15:55.542Z,19.81
2024-05-09T09:16:55.492Z,19.81
2024-05-09T09:17:55.635Z,19.73
2024-05-09T09:18:55.673Z,19.92
2024-05-09T09:19:55.636Z,19.34
2024-05-09T09:20:55.516Z,21.29
2024-05-09T09:21:55.523Z,20.42
2024-05-09T09:22:55.516Z,18.66
2024-05-09T09:23:55.527Z,21.01
2024-05-09T09:24:55.447Z,20.43
2024-05-09T09:25:55.436Z,21.03
2024-05-09T09:26:55.413Z,21.13
2024-05-09T09:27:55.544Z,20.47
2024-05-09T09:28:55.400Z,21.26
2024-05-09T09:29:55.407Z,22.16
2024-05-09T09:30:55.395Z,21.47
2024-05-09T09:31:55.394Z,21.27
2024-05-09T09:32:55.570Z,21.58
2024-05-09T09:33:55.643Z,22.26
2024-05-09T09:34:55.402Z,22.66
2024-05-09T09:35:55.373Z,20.89
2024-05-09T09:36:55.440Z,21.28
2024-05-09T09:37:55.410Z,21.58
2024-05-09T09:38:55.339Z,22.06
2024-05-09T09:39:55.379Z,23.35
2024-05-09T09:40:55.340Z,23.25
2024-05-09T09:41:55.349Z,20.22
2024-05-09T09:42:55.304Z,21.72
2024-05-09T09:43:55.298Z,22.82
2024-05-09T09:45:03.797Z,22.24
2024-05-09T09:45:55.552Z,22.66
2024-05-09T09:46:55.313Z,22.37
2024-05-09T09:47:55.332Z,23.18
2024-05-09T09:48:55.425Z,24.18
2024-05-09T09:49:55.308Z,25.59
2024-05-09T09:50:55.308Z,24.41
2024-05-09T09:51:55.386Z,24.51
2024-05-09T09:52:55.236Z,25.98
2024-05-09T09:53:55.208Z,24.58
2024-05-09T09:54:55.246Z,25.86
2024-05-09T09:55:55.242Z,26.34
2024-05-09T09:56:55.186Z,25.05
2024-05-09T09:57:55.289Z,25.93
2024-05-09T09:58:55.204Z,25.73
2024-05-09T09:59:55.224Z,24.24
2024-05-09T10:00:55.418Z,23.36
2024-05-09T10:01:55.339Z,24.74
2024-05-09T10:02:55.189Z,24.74
2024-05-09T10:03:55.336Z,24.24
2024-05-09T10:04:55.431Z,24.53
2024-05-09T10:05:55.183Z,24.33
2024-05-09T10:06:55.103Z,24.43
2024-05-09T10:07:55.086Z,23.94
2024-05-09T10:08:55.093Z,22.56
2024-05-09T10:09:55.262Z,23.84
2024-05-09T10:10:55.390Z,24.02
2024-05-09T10:11:59.990Z,22.36
2024-05-09T10:12:55.140Z,23.84
2024-05-09T10:13:55.148Z,22.46
2024-05-09T10:14:55.171Z,24.63
2024-05-09T10:15:55.191Z,23.63
2024-05-09T10:16:55.075Z,24.52
2024-05-09T10:17:55.110Z,23.63
2024-05-09T10:18:55.339Z,23.24
2024-05-09T10:19:55.896Z,21.46
2024-05-09T10:20:54.966Z,24.63
2024-05-09T10:21:55.019Z,24.82
2024-05-09T10:22:54.934Z,24.82
2024-05-09T10:23:54.968Z,24.62
2024-05-09T10:24:54.996Z,24.62
2024-05-09T10:25:54.912Z,23.14
2024-05-09T10:26:54.923Z,22.74
2024-05-09T10:27:54.979Z,23.74
2024-05-09T10:28:54.978Z,22.75
2024-05-09T10:29:54.933Z,22.47
2024-05-09T10:30:55.003Z,22.39
2024-05-09T10:31:54.913Z,21.92
2024-05-09T10:32:55.017Z,24.50
2024-05-09T10:33:55.192Z,24.51
2024-05-09T10:34:54.961Z,23.73
2024-05-09T10:35:54.849Z,26.20
2024-05-09T10:36:55.354Z,24.83
2024-05-09T10:37:54.894Z,25.84
2024-05-09T10:38:54.809Z,26.44
2024-05-09T10:39:54.857Z,28.72
2024-05-09T10:40:54.785Z,28.32
2024-05-09T10:41:54.808Z,28.34
2024-05-09T10:42:54.912Z,28.93
2024-05-09T10:43:54.815Z,27.55
2024-05-09T10:44:54.817Z,27.86
2024-05-09T10:45:54.852Z,25.89
2024-05-09T10:46:55.073Z,27.67
2024-05-09T10:47:54.961Z,26.49
2024-05-09T10:48:54.843Z,27.20
2024-05-09T10:49:54.863Z,27.59
2024-05-09T10:50:54.699Z,27.51
2024-05-09T10:51:54.922Z,27.71
2024-05-09T10:52:54.680Z,28.81
2024-05-09T10:53:54.735Z,31.10
2024-05-09T10:54:54.741Z,29.91
2024-05-09T10:55:54.717Z,28.02
2024-05-09T10:56:54.726Z,28.22
2024-05-09T10:57:54.664Z,31.10
2024-05-09T10:58:54.632Z,28.53
2024-05-09T10:59:54.660Z,27.83
2024-05-09T11:00:54.741Z,27.73
2024-05-09T11:01:54.776Z,28.43
2024-05-09T11:02:54.675Z,30.62
2024-05-09T11:03:54.722Z,30.02
2024-05-09T11:04:54.641Z,27.54
2024-05-09T11:05:54.708Z,28.34
2024-05-09T11:06:54.607Z,28.44
2024-05-09T11:07:54.558Z,28.94
2024-05-09T11:08:54.622Z,27.86
2024-05-09T11:09:54.643Z,28.17
2024-05-09T11:10:54.662Z,29.77
2024-05-09T11:11:54.638Z,28.88
2024-05-09T11:12:54.570Z,28.19
2024-05-09T11:13:54.593Z,29.90
2024-05-09T11:14:54.575Z,32.29
2024-05-09T11:15:54.858Z,33.28
2024-05-09T11:16:54.456Z,30.69
2024-05-09T11:17:54.552Z,32.57
2024-05-09T11:18:54.738Z,30.98
2024-05-09T11:19:54.552Z,31.77
2024-05-09T11:20:54.472Z,31.48
2024-05-09T11:21:54.484Z,29.68
2024-05-09T11:22:54.408Z,29.18
2024-05-09T11:23:54.410Z,30.49
2024-05-09T11:24:54.547Z,31.79
2024-05-09T11:25:54.389Z,32.29
2024-05-09T11:26:54.505Z,30.10
2024-05-09T11:27:54.536Z,32.47
2024-05-09T11:28:54.508Z,34.36
2024-05-09T11:29:54.427Z,32.17
2024-05-09T11:30:54.408Z,32.37
2024-05-09T11:31:54.420Z,31.97
2024-05-09T11:32:54.435Z,30.98
2024-05-09T11:33:54.584Z,31.97
2024-05-09T11:34:54.315Z,29.88
2024-05-09T11:35:54.291Z,31.07
2024-05-09T11:36:54.338Z,29.90
2024-05-09T11:37:54.269Z,29.10
2024-05-09T11:38:54.320Z,29.69
2024-05-09T11:39:54.274Z,27.72
2024-05-09T11:40:54.300Z,28.41
2024-05-09T11:41:54.319Z,32.22
2024-05-09T11:42:54.345Z,32.12
2024-05-09T11:43:54.291Z,33.31
2024-05-09T11:44:54.308Z,30.72
2024-05-09T11:45:54.223Z,33.20
2024-05-09T11:46:54.184Z,33.50
2024-05-09T11:47:54.355Z,29.72
2024-05-09T11:48:54.274Z,29.03
2024-05-09T11:49:54.213Z,31.92
2024-05-09T11:50:54.154Z,33.31
2024-05-09T11:51:54.285Z,32.53
2024-05-09T11:52:54.161Z,33.33
2024-05-09T11:53:54.173Z,30.83
2024-05-09T11:54:54.172Z,31.04
2024-05-09T11:55:54.151Z,30.83
2024-05-09T11:56:54.142Z,32.14
2024-05-09T11:57:54.179Z,30.24
2024-05-09T11:58:54.201Z,30.04
2024-05-09T11:59:54.076Z,28.55
2024-05-09T12:00:54.137Z,30.85
2024-05-09T12:01:54.182Z,30.27
2024-05-09T12:02:54.080Z,29.86
2024-05-09T12:03:54.310Z,31.46
2024-05-09T12:04:54.141Z,32.46
2024-05-09T12:05:54.081Z,29.67
2024-05-09T12:06:54.101Z,29.77
2024-05-09T12:07:54.038Z,32.26
2024-05-09T12:08:54.084Z,31.67
2024-05-09T12:09:54.144Z,32.17
2024-05-09T12:10:54.199Z,28.57
2024-05-09T12:11:54.016Z,31.67
2024-05-09T12:12:54.020Z,29.57
2024-05-09T12:13:53.998Z,28.97
2024-05-09T12:14:53.934Z,31.07
2024-05-09T12:15:54.052Z,30.16
2024-05-09T12:16:54.002Z,30.07
2024-05-09T12:17:54.954Z,31.96
2024-05-09T12:18:54.139Z,31.46
2024-05-09T12:19:53.943Z,30.87
2024-05-09T12:20:54.020Z,30.87
2024-05-09T12:21:53.993Z,30.87
2024-05-09T12:22:53.871Z,31.76
2024-05-09T12:23:53.901Z,30.08
2024-05-09T12:24:53.906Z,31.88
2024-05-09T12:25:53.843Z,30.98
2024-05-09T12:26:53.879Z,32.48
2024-05-09T12:27:53.946Z,32.18
2024-05-09T12:28:53.892Z,33.98
2024-05-09T12:29:53.879Z,30.58
2024-05-09T12:30:53.925Z,32.38
2024-05-09T12:31:53.836Z,33.38
2024-05-09T12:32:54.002Z,31.28
2024-05-09T12:33:53.977Z,31.78
2024-05-09T12:34:53.776Z,31.58
2024-05-09T12:35:53.854Z,31.38
2024-05-09T12:36:53.827Z,33.96
2024-05-09T12:37:53.722Z,35.06
2024-05-09T12:38:53.887Z,32.97
2024-05-09T12:39:53.736Z,32.06
2024-05-09T12:40:53.853Z,31.16
2024-05-09T12:41:53.689Z,29.97
2024-05-09T12:42:53.772Z,30.16
2024-05-09T12:43:53.734Z,31.57
2024-05-09T12:44:53.785Z,31.46
2024-05-09T12:45:53.747Z,32.46
2024-05-09T12:46:53.781Z,30.36
2024-05-09T12:47:53.842Z,31.57
2024-05-09T12:48:53.963Z,29.38
2024-05-09T12:49:53.692Z,30.78
2024-05-09T12:50:53.613Z,31.78
2024-05-09T12:51:53.627Z,29.68
2024-05-09T12:52:53.636Z,30.38
2024-05-09T12:53:53.625Z,29.30
2024-05-09T12:54:53.603Z,29.99
2024-05-09T12:55:57.244Z,29.69
2024-05-09T12:56:53.600Z,29.30